sensor_id;sensor_type;location;lat;lon;timestamp;P1;durP1;ratioP1;P2;durP2;ratioP2
6023;SDS011;3040;42.654;23.296;2023-04-15T00:00:08;39.93;;;12.47;;
6023;SDS011;3040;42.654;23.296;2023-04-15T00:02:36;8.30;;;6.00;;
6023;SDS011;3040;42.654;23.296;2023-04-15T00:05:03;4.37;;;3.97;;
6023;SDS011;3040;42.654;23.296;2023-04-15T00:07:30;4.87;;;4.40;;
6023;SDS011;3040;42.654;23.296;2023-04-15T00:09:58;5.67;;;5.07;;
6023;SDS011;3040;42.654;23.296;2023-04-15T00:12:25;6.33;;;5.83;;
6023;SDS011;3040;42.654;23.296;2023-04-15T00:14:53;7.60;;;5.63;;
6023;SDS011;3040;42.654;23.296;2023-04-15T00:17:21;6.10;;;5.60;;
6023;SDS011;3040;42.654;23.296;2023-04-15T00:19:48;5.07;;;4.67;;
6023;SDS011;3040;42.654;23.296;2023-04-15T00:22:15;7.10;;;5.23;;
6023;SDS011;3040;42.654;23.296;2023-04-15T00:24:42;5.37;;;4.87;;
6023;SDS011;3040;42.654;23.296;2023-04-15T00:27:11;5.00;;;4.60;;
6023;SDS011;3040;42.654;23.296;2023-04-15T00:29:38;7.57;;;5.87;;
6023;SDS011;3040;42.654;23.296;2023-04-15T00:32:05;29.73;;;9.80;;
6023;SDS011;3040;42.654;23.296;2023-04-15T00:34:34;18.80;;;7.00;;
6023;SDS011;3040;42.654;23.296;2023-04-15T00:37:01;10.53;;;6.30;;
6023;SDS011;3040;42.654;23.296;2023-04-15T00:39:28;5.87;;;5.10;;
6023;SDS011;3040;42.654;23.296;2023-04-15T00:41:54;9.63;;;5.73;;
6023;SDS011;3040;42.654;23.296;2023-04-15T00:44:24;8.43;;;5.53;;
6023;SDS011;3040;42.654;23.296;2023-04-15T00:46:51;11.37;;;4.77;;
6023;SDS011;3040;42.654;23.296;2023-04-15T00:49:18;4.53;;;3.67;;
6023;SDS011;3040;42.654;23.296;2023-04-15T00:51:45;5.07;;;4.70;;
6023;SDS011;3040;42.654;23.296;2023-04-15T00:54:12;5.13;;;4.53;;
6023;SDS011;3040;42.654;23.296;2023-04-15T00:56:40;4.23;;;3.10;;
6023;SDS011;3040;42.654;23.296;2023-04-15T00:59:07;4.00;;;3.70;;
6023;SDS011;3040;42.654;23.296;2023-04-15T01:01:36;19.13;;;7.13;;
6023;SDS011;3040;42.654;23.296;2023-04-15T01:04:03;35.10;;;11.00;;
6023;SDS011;3040;42.654;23.296;2023-04-15T01:06:31;8.90;;;4.83;;
6023;SDS011;3040;42.654;23.296;2023-04-15T01:08:58;17.13;;;6.23;;
6023;SDS011;3040;42.654;23.296;2023-04-15T01:11:25;21.40;;;8.60;;
6023;SDS011;3040;42.654;23.296;2023-04-15T01:13:53;8.53;;;6.27;;
6023;SDS011;3040;42.654;23.296;2023-04-15T01:16:22;2.33;;;2.13;;
6023;SDS011;3040;42.654;23.296;2023-04-15T01:18:50;1.93;;;1.83;;
6023;SDS011;3040;42.654;23.296;2023-04-15T01:21:17;11.43;;;6.83;;
6023;SDS011;3040;42.654;23.296;2023-04-15T01:23:46;10.00;;;5.60;;
6023;SDS011;3040;42.654;23.296;2023-04-15T01:26:15;11.17;;;6.03;;
6023;SDS011;3040;42.654;23.296;2023-04-15T01:28:42;6.93;;;5.00;;
6023;SDS011;3040;42.654;23.296;2023-04-15T01:31:09;3.70;;;3.40;;
6023;SDS011;3040;42.654;23.296;2023-04-15T01:33:38;4.07;;;3.77;;
6023;SDS011;3040;42.654;23.296;2023-04-15T01:36:07;3.90;;;3.70;;
6023;SDS011;3040;42.654;23.296;2023-04-15T01:38:35;4.30;;;3.90;;
6023;SDS011;3040;42.654;23.296;2023-04-15T01:41:02;4.33;;;3.40;;
6023;SDS011;3040;42.654;23.296;2023-04-15T01:43:33;3.07;;;2.87;;
6023;SDS011;3040;42.654;23.296;2023-04-15T01:46:00;3.10;;;2.90;;
6023;SDS011;3040;42.654;23.296;2023-04-15T01:48:27;3.20;;;3.00;;
6023;SDS011;3040;42.654;23.296;2023-04-15T01:50:54;2.83;;;2.63;;
6023;SDS011;3040;42.654;23.296;2023-04-15T01:53:22;2.37;;;2.27;;
6023;SDS011;3040;42.654;23.296;2023-04-15T01:55:49;2.77;;;1.63;;
6023;SDS011;3040;42.654;23.296;2023-04-15T01:58:16;1.97;;;1.77;;
6023;SDS011;3040;42.654;23.296;2023-04-15T02:00:45;2.07;;;1.97;;
6023;SDS011;3040;42.654;23.296;2023-04-15T02:03:12;1.80;;;1.70;;
6023;SDS011;3040;42.654;23.296;2023-04-15T02:05:39;3.50;;;1.80;;
6023;SDS011;3040;42.654;23.296;2023-04-15T02:08:05;2.07;;;1.67;;
6023;SDS011;3040;42.654;23.296;2023-04-15T02:10:32;2.60;;;1.60;;
6023;SDS011;3040;42.654;23.296;2023-04-15T02:12:59;2.00;;;1.90;;
6023;SDS011;3040;42.654;23.296;2023-04-15T02:15:26;2.00;;;1.80;;
6023;SDS011;3040;42.654;23.296;2023-04-15T02:17:55;2.77;;;1.97;;
6023;SDS011;3040;42.654;23.296;2023-04-15T02:20:23;2.20;;;2.10;;
6023;SDS011;3040;42.654;23.296;2023-04-15T02:22:53;2.10;;;1.67;;
6023;SDS011;3040;42.654;23.296;2023-04-15T02:25:20;4.90;;;1.93;;
6023;SDS011;3040;42.654;23.296;2023-04-15T02:27:47;2.00;;;1.87;;
6023;SDS011;3040;42.654;23.296;2023-04-15T02:30:14;2.23;;;2.00;;
6023;SDS011;3040;42.654;23.296;2023-04-15T02:32:41;2.80;;;1.70;;
6023;SDS011;3040;42.654;23.296;2023-04-15T02:35:10;4.13;;;1.97;;
6023;SDS011;3040;42.654;23.296;2023-04-15T02:37:37;3.07;;;1.80;;
6023;SDS011;3040;42.654;23.296;2023-04-15T02:40:08;2.20;;;2.10;;
6023;SDS011;3040;42.654;23.296;2023-04-15T02:42:36;4.07;;;3.87;;
6023;SDS011;3040;42.654;23.296;2023-04-15T02:45:04;3.70;;;3.50;;
6023;SDS011;3040;42.654;23.296;2023-04-15T02:47:32;3.40;;;3.20;;
6023;SDS011;3040;42.654;23.296;2023-04-15T02:49:59;2.93;;;2.73;;
6023;SDS011;3040;42.654;23.296;2023-04-15T02:52:27;2.97;;;2.77;;
6023;SDS011;3040;42.654;23.296;2023-04-15T02:54:54;2.97;;;2.83;;
6023;SDS011;3040;42.654;23.296;2023-04-15T02:57:21;3.30;;;3.00;;
6023;SDS011;3040;42.654;23.296;2023-04-15T02:59:48;4.40;;;3.27;;
6023;SDS011;3040;42.654;23.296;2023-04-15T03:02:15;2.83;;;2.63;;
6023;SDS011;3040;42.654;23.296;2023-04-15T03:04:42;2.53;;;2.37;;
6023;SDS011;3040;42.654;23.296;2023-04-15T03:07:09;2.73;;;2.60;;
6023;SDS011;3040;42.654;23.296;2023-04-15T03:09:37;2.70;;;2.50;;
6023;SDS011;3040;42.654;23.296;2023-04-15T03:12:05;6.70;;;4.97;;
6023;SDS011;3040;42.654;23.296;2023-04-15T03:14:32;4.67;;;3.93;;
6023;SDS011;3040;42.654;23.296;2023-04-15T03:16:59;4.23;;;3.93;;
6023;SDS011;3040;42.654;23.296;2023-04-15T03:19:26;4.90;;;4.50;;
6023;SDS011;3040;42.654;23.296;2023-04-15T03:21:53;4.37;;;4.17;;
6023;SDS011;3040;42.654;23.296;2023-04-15T03:24:20;3.70;;;3.40;;
6023;SDS011;3040;42.654;23.296;2023-04-15T03:26:48;4.27;;;3.60;;
6023;SDS011;3040;42.654;23.296;2023-04-15T03:29:15;7.20;;;5.83;;
6023;SDS011;3040;42.654;23.296;2023-04-15T03:31:42;35.83;;;22.40;;
6023;SDS011;3040;42.654;23.296;2023-04-15T03:34:10;15.40;;;11.57;;
6023;SDS011;3040;42.654;23.296;2023-04-15T03:36:37;5.27;;;4.87;;
6023;SDS011;3040;42.654;23.296;2023-04-15T03:39:04;14.90;;;12.87;;
6023;SDS011;3040;42.654;23.296;2023-04-15T03:41:30;8.83;;;8.03;;
6023;SDS011;3040;42.654;23.296;2023-04-15T03:43:59;12.63;;;11.43;;
6023;SDS011;3040;42.654;23.296;2023-04-15T03:46:26;9.10;;;8.40;;
6023;SDS011;3040;42.654;23.296;2023-04-15T03:48:53;7.07;;;5.33;;
6023;SDS011;3040;42.654;23.296;2023-04-15T03:51:20;12.87;;;11.77;;
6023;SDS011;3040;42.654;23.296;2023-04-15T03:53:46;8.17;;;7.57;;
6023;SDS011;3040;42.654;23.296;2023-04-15T03:56:13;5.90;;;5.50;;
6023;SDS011;3040;42.654;23.296;2023-04-15T03:58:40;4.63;;;4.33;;
6023;SDS011;3040;42.654;23.296;2023-04-15T04:01:08;5.70;;;5.20;;
6023;SDS011;3040;42.654;23.296;2023-04-15T04:03:35;5.87;;;4.40;;
6023;SDS011;3040;42.654;23.296;2023-04-15T04:06:02;4.10;;;3.90;;
6023;SDS011;3040;42.654;23.296;2023-04-15T04:08:29;5.20;;;4.70;;
6023;SDS011;3040;42.654;23.296;2023-04-15T04:10:56;5.47;;;4.33;;
6023;SDS011;3040;42.654;23.296;2023-04-15T04:13:23;5.47;;;5.07;;
6023;SDS011;3040;42.654;23.296;2023-04-15T04:15:50;5.50;;;4.90;;
6023;SDS011;3040;42.654;23.296;2023-04-15T04:18:18;6.10;;;5.13;;
6023;SDS011;3040;42.654;23.296;2023-04-15T04:20:45;5.07;;;4.67;;
6023;SDS011;3040;42.654;23.296;2023-04-15T04:23:12;6.33;;;4.33;;
6023;SDS011;3040;42.654;23.296;2023-04-15T04:25:39;5.10;;;4.53;;
6023;SDS011;3040;42.654;23.296;2023-04-15T04:28:06;4.43;;;4.10;;
6023;SDS011;3040;42.654;23.296;2023-04-15T04:30:34;4.77;;;4.37;;
6023;SDS011;3040;42.654;23.296;2023-04-15T04:33:01;4.53;;;4.33;;
6023;SDS011;3040;42.654;23.296;2023-04-15T04:35:29;4.23;;;4.03;;
6023;SDS011;3040;42.654;23.296;2023-04-15T04:37:58;4.47;;;4.13;;
6023;SDS011;3040;42.654;23.296;2023-04-15T04:40:25;5.43;;;4.27;;
6023;SDS011;3040;42.654;23.296;2023-04-15T04:42:52;4.90;;;4.60;;
6023;SDS011;3040;42.654;23.296;2023-04-15T04:45:19;5.77;;;3.80;;
6023;SDS011;3040;42.654;23.296;2023-04-15T04:47:46;4.47;;;4.17;;
6023;SDS011;3040;42.654;23.296;2023-04-15T04:50:13;7.97;;;3.73;;
6023;SDS011;3040;42.654;23.296;2023-04-15T04:52:42;7.73;;;4.33;;
6023;SDS011;3040;42.654;23.296;2023-04-15T04:55:09;8.07;;;4.53;;
6023;SDS011;3040;42.654;23.296;2023-04-15T04:57:35;6.20;;;4.87;;
6023;SDS011;3040;42.654;23.296;2023-04-15T05:00:04;6.30;;;5.77;;
6023;SDS011;3040;42.654;23.296;2023-04-15T05:02:32;7.80;;;7.10;;
6023;SDS011;3040;42.654;23.296;2023-04-15T05:05:00;7.57;;;6.83;;
6023;SDS011;3040;42.654;23.296;2023-04-15T05:07:26;8.93;;;6.30;;
6023;SDS011;3040;42.654;23.296;2023-04-15T05:09:54;7.07;;;6.30;;
6023;SDS011;3040;42.654;23.296;2023-04-15T05:12:21;13.80;;;6.90;;
6023;SDS011;3040;42.654;23.296;2023-04-15T05:14:48;7.27;;;6.57;;
6023;SDS011;3040;42.654;23.296;2023-04-15T05:17:15;6.40;;;6.10;;
6023;SDS011;3040;42.654;23.296;2023-04-15T05:19:42;6.53;;;6.13;;
6023;SDS011;3040;42.654;23.296;2023-04-15T05:22:09;6.63;;;6.13;;
6023;SDS011;3040;42.654;23.296;2023-04-15T05:24:36;7.63;;;6.20;;
6023;SDS011;3040;42.654;23.296;2023-04-15T05:27:04;6.40;;;6.00;;
6023;SDS011;3040;42.654;23.296;2023-04-15T05:29:32;6.50;;;6.10;;
6023;SDS011;3040;42.654;23.296;2023-04-15T05:31:59;6.30;;;5.70;;
6023;SDS011;3040;42.654;23.296;2023-04-15T05:34:26;6.37;;;5.47;;
6023;SDS011;3040;42.654;23.296;2023-04-15T05:36:53;6.30;;;5.80;;
6023;SDS011;3040;42.654;23.296;2023-04-15T05:39:20;5.90;;;5.60;;
6023;SDS011;3040;42.654;23.296;2023-04-15T05:41:47;5.30;;;4.80;;
6023;SDS011;3040;42.654;23.296;2023-04-15T05:44:15;5.83;;;5.20;;
6023;SDS011;3040;42.654;23.296;2023-04-15T05:46:42;6.90;;;6.40;;
6023;SDS011;3040;42.654;23.296;2023-04-15T05:49:10;5.43;;;5.10;;
6023;SDS011;3040;42.654;23.296;2023-04-15T05:51:37;5.40;;;4.57;;
6023;SDS011;3040;42.654;23.296;2023-04-15T05:54:03;5.23;;;4.37;;
6023;SDS011;3040;42.654;23.296;2023-04-15T05:56:31;4.43;;;3.67;;
6023;SDS011;3040;42.654;23.296;2023-04-15T05:58:57;6.00;;;4.83;;
6023;SDS011;3040;42.654;23.296;2023-04-15T06:01:26;5.27;;;4.97;;
6023;SDS011;3040;42.654;23.296;2023-04-15T06:03:53;4.17;;;3.87;;
6023;SDS011;3040;42.654;23.296;2023-04-15T06:06:20;7.60;;;4.50;;
6023;SDS011;3040;42.654;23.296;2023-04-15T06:08:46;4.27;;;4.07;;
6023;SDS011;3040;42.654;23.296;2023-04-15T06:11:13;5.90;;;5.47;;
6023;SDS011;3040;42.654;23.296;2023-04-15T06:13:40;6.77;;;5.37;;
6023;SDS011;3040;42.654;23.296;2023-04-15T06:16:08;5.40;;;5.00;;
6023;SDS011;3040;42.654;23.296;2023-04-15T06:18:37;5.40;;;5.00;;
6023;SDS011;3040;42.654;23.296;2023-04-15T06:21:04;5.40;;;4.90;;
6023;SDS011;3040;42.654;23.296;2023-04-15T06:23:33;7.73;;;5.37;;
6023;SDS011;3040;42.654;23.296;2023-04-15T06:26:00;5.17;;;4.67;;
6023;SDS011;3040;42.654;23.296;2023-04-15T06:28:27;6.17;;;5.70;;
6023;SDS011;3040;42.654;23.296;2023-04-15T06:30:54;7.07;;;6.03;;
6023;SDS011;3040;42.654;23.296;2023-04-15T06:33:21;7.20;;;5.57;;
6023;SDS011;3040;42.654;23.296;2023-04-15T06:35:49;6.00;;;5.10;;
6023;SDS011;3040;42.654;23.296;2023-04-15T06:38:16;10.70;;;5.57;;
6023;SDS011;3040;42.654;23.296;2023-04-15T06:40:43;8.77;;;5.53;;
6023;SDS011;3040;42.654;23.296;2023-04-15T06:43:10;5.40;;;5.00;;
6023;SDS011;3040;42.654;23.296;2023-04-15T06:45:37;5.07;;;4.73;;
6023;SDS011;3040;42.654;23.296;2023-04-15T06:48:04;9.27;;;5.93;;
6023;SDS011;3040;42.654;23.296;2023-04-15T06:50:31;6.20;;;4.63;;
6023;SDS011;3040;42.654;23.296;2023-04-15T06:53:01;5.73;;;4.93;;
6023;SDS011;3040;42.654;23.296;2023-04-15T06:55:28;6.23;;;4.10;;
6023;SDS011;3040;42.654;23.296;2023-04-15T06:57:55;5.83;;;5.40;;
6023;SDS011;3040;42.654;23.296;2023-04-15T07:00:22;5.07;;;4.60;;
6023;SDS011;3040;42.654;23.296;2023-04-15T07:02:49;5.03;;;4.60;;
6023;SDS011;3040;42.654;23.296;2023-04-15T07:05:16;5.57;;;5.13;;
6023;SDS011;3040;42.654;23.296;2023-04-15T07:07:44;5.23;;;4.93;;
6023;SDS011;3040;42.654;23.296;2023-04-15T07:10:12;5.03;;;4.33;;
6023;SDS011;3040;42.654;23.296;2023-04-15T07:12:40;4.40;;;4.10;;
6023;SDS011;3040;42.654;23.296;2023-04-15T07:15:07;5.00;;;4.53;;
6023;SDS011;3040;42.654;23.296;2023-04-15T07:17:34;4.90;;;4.53;;
6023;SDS011;3040;42.654;23.296;2023-04-15T07:20:01;5.30;;;4.07;;
6023;SDS011;3040;42.654;23.296;2023-04-15T07:22:29;7.80;;;5.17;;
6023;SDS011;3040;42.654;23.296;2023-04-15T07:24:55;6.23;;;5.67;;
6023;SDS011;3040;42.654;23.296;2023-04-15T07:27:24;5.03;;;4.20;;
6023;SDS011;3040;42.654;23.296;2023-04-15T07:29:51;4.47;;;3.50;;
6023;SDS011;3040;42.654;23.296;2023-04-15T07:32:18;4.10;;;3.70;;
6023;SDS011;3040;42.654;23.296;2023-04-15T07:34:45;8.53;;;4.40;;
6023;SDS011;3040;42.654;23.296;2023-04-15T07:37:12;4.37;;;3.90;;
6023;SDS011;3040;42.654;23.296;2023-04-15T07:39:39;3.97;;;3.77;;
6023;SDS011;3040;42.654;23.296;2023-04-15T07:42:06;6.50;;;3.63;;
6023;SDS011;3040;42.654;23.296;2023-04-15T07:44:34;4.43;;;3.63;;
6023;SDS011;3040;42.654;23.296;2023-04-15T07:47:01;3.50;;;3.20;;
6023;SDS011;3040;42.654;23.296;2023-04-15T07:49:28;3.63;;;3.43;;
6023;SDS011;3040;42.654;23.296;2023-04-15T07:51:55;4.50;;;3.20;;
6023;SDS011;3040;42.654;23.296;2023-04-15T07:54:24;3.37;;;3.10;;
6023;SDS011;3040;42.654;23.296;2023-04-15T07:56:51;10.80;;;9.13;;
6023;SDS011;3040;42.654;23.296;2023-04-15T07:59:18;4.13;;;3.83;;
6023;SDS011;3040;42.654;23.296;2023-04-15T08:01:47;8.33;;;3.43;;
6023;SDS011;3040;42.654;23.296;2023-04-15T08:04:14;4.60;;;4.20;;
6023;SDS011;3040;42.654;23.296;2023-04-15T08:06:41;3.33;;;2.97;;
6023;SDS011;3040;42.654;23.296;2023-04-15T08:09:08;5.20;;;4.37;;
6023;SDS011;3040;42.654;23.296;2023-04-15T08:11:35;3.27;;;2.93;;
6023;SDS011;3040;42.654;23.296;2023-04-15T08:14:02;3.70;;;3.20;;
6023;SDS011;3040;42.654;23.296;2023-04-15T08:16:29;4.67;;;2.77;;
6023;SDS011;3040;42.654;23.296;2023-04-15T08:18:57;5.93;;;2.50;;
6023;SDS011;3040;42.654;23.296;2023-04-15T08:21:25;2.30;;;2.10;;
6023;SDS011;3040;42.654;23.296;2023-04-15T08:23:54;3.43;;;2.10;;
6023;SDS011;3040;42.654;23.296;2023-04-15T08:26:21;1.90;;;1.80;;
6023;SDS011;3040;42.654;23.296;2023-04-15T08:28:48;4.27;;;1.60;;
6023;SDS011;3040;42.654;23.296;2023-04-15T08:31:16;4.50;;;1.90;;
6023;SDS011;3040;42.654;23.296;2023-04-15T08:33:44;2.20;;;1.40;;
6023;SDS011;3040;42.654;23.296;2023-04-15T08:36:12;1.60;;;1.50;;
6023;SDS011;3040;42.654;23.296;2023-04-15T08:38:39;1.30;;;1.20;;
6023;SDS011;3040;42.654;23.296;2023-04-15T08:41:08;1.87;;;1.73;;
6023;SDS011;3040;42.654;23.296;2023-04-15T08:43:40;3.93;;;2.20;;
6023;SDS011;3040;42.654;23.296;2023-04-15T08:46:10;2.43;;;1.43;;
6023;SDS011;3040;42.654;23.296;2023-04-15T08:48:38;0.97;;;0.87;;
6023;SDS011;3040;42.654;23.296;2023-04-15T08:51:05;2.67;;;0.80;;
6023;SDS011;3040;42.654;23.296;2023-04-15T08:53:34;0.70;;;0.70;;
6023;SDS011;3040;42.654;23.296;2023-04-15T08:56:02;1.97;;;0.77;;
6023;SDS011;3040;42.654;23.296;2023-04-15T08:58:34;2.03;;;1.10;;
6023;SDS011;3040;42.654;23.296;2023-04-15T09:01:01;1.20;;;1.10;;
6023;SDS011;3040;42.654;23.296;2023-04-15T09:03:28;1.03;;;0.73;;
6023;SDS011;3040;42.654;23.296;2023-04-15T09:05:55;0.97;;;0.60;;
6023;SDS011;3040;42.654;23.296;2023-04-15T09:08:22;1.23;;;0.40;;
6023;SDS011;3040;42.654;23.296;2023-04-15T09:10:51;0.40;;;0.40;;
6023;SDS011;3040;42.654;23.296;2023-04-15T09:13:19;0.50;;;0.50;;
6023;SDS011;3040;42.654;23.296;2023-04-15T09:15:46;0.40;;;0.40;;
6023;SDS011;3040;42.654;23.296;2023-04-15T09:18:13;0.53;;;0.30;;
6023;SDS011;3040;42.654;23.296;2023-04-15T09:20:52;0.60;;;0.50;;
6023;SDS011;3040;42.654;23.296;2023-04-15T09:23:20;0.70;;;0.70;;
6023;SDS011;3040;42.654;23.296;2023-04-15T09:25:47;1.23;;;0.40;;
6023;SDS011;3040;42.654;23.296;2023-04-15T09:28:24;0.60;;;0.30;;
6023;SDS011;3040;42.654;23.296;2023-04-15T09:30:54;0.50;;;0.37;;
6023;SDS011;3040;42.654;23.296;2023-04-15T09:33:22;0.60;;;0.60;;
6023;SDS011;3040;42.654;23.296;2023-04-15T09:35:57;2.00;;;0.47;;
6023;SDS011;3040;42.654;23.296;2023-04-15T09:38:25;0.30;;;0.30;;
6023;SDS011;3040;42.654;23.296;2023-04-15T09:40:52;1.60;;;0.50;;
6023;SDS011;3040;42.654;23.296;2023-04-15T09:43:20;1.13;;;0.60;;
6023;SDS011;3040;42.654;23.296;2023-04-15T09:45:49;1.20;;;1.20;;
6023;SDS011;3040;42.654;23.296;2023-04-15T09:48:18;1.77;;;0.90;;
6023;SDS011;3040;42.654;23.296;2023-04-15T09:50:46;1.17;;;0.53;;
6023;SDS011;3040;42.654;23.296;2023-04-15T09:53:15;3.20;;;1.77;;
6023;SDS011;3040;42.654;23.296;2023-04-15T09:55:44;0.93;;;0.70;;
6023;SDS011;3040;42.654;23.296;2023-04-15T09:58:18;1.70;;;0.90;;
6023;SDS011;3040;42.654;23.296;2023-04-15T10:00:46;0.70;;;0.50;;
6023;SDS011;3040;42.654;23.296;2023-04-15T10:03:16;0.97;;;0.50;;
6023;SDS011;3040;42.654;23.296;2023-04-15T10:05:46;0.50;;;0.50;;
6023;SDS011;3040;42.654;23.296;2023-04-15T10:08:15;0.43;;;0.43;;
6023;SDS011;3040;42.654;23.296;2023-04-15T10:10:44;0.97;;;0.60;;
6023;SDS011;3040;42.654;23.296;2023-04-15T10:13:12;0.77;;;0.63;;
6023;SDS011;3040;42.654;23.296;2023-04-15T10:15:41;3.60;;;0.80;;
6023;SDS011;3040;42.654;23.296;2023-04-15T10:18:12;1.07;;;0.57;;
6023;SDS011;3040;42.654;23.296;2023-04-15T10:20:45;0.53;;;0.53;;
6023;SDS011;3040;42.654;23.296;2023-04-15T10:23:13;2.10;;;1.00;;
6023;SDS011;3040;42.654;23.296;2023-04-15T10:25:44;0.70;;;0.70;;
6023;SDS011;3040;42.654;23.296;2023-04-15T10:28:12;0.87;;;0.50;;
6023;SDS011;3040;42.654;23.296;2023-04-15T10:30:41;0.87;;;0.60;;
6023;SDS011;3040;42.654;23.296;2023-04-15T10:33:08;1.10;;;0.50;;
6023;SDS011;3040;42.654;23.296;2023-04-15T10:35:39;0.90;;;0.50;;
6023;SDS011;3040;42.654;23.296;2023-04-15T10:41:15;0.83;;;0.57;;
6023;SDS011;3040;42.654;23.296;2023-04-15T10:43:47;1.90;;;0.80;;
6023;SDS011;3040;42.654;23.296;2023-04-15T10:46:20;0.77;;;0.77;;
6023;SDS011;3040;42.654;23.296;2023-04-15T10:48:48;0.50;;;0.30;;
6023;SDS011;3040;42.654;23.296;2023-04-15T10:51:25;0.53;;;0.53;;
6023;SDS011;3040;42.654;23.296;2023-04-15T10:53:57;1.37;;;0.70;;
6023;SDS011;3040;42.654;23.296;2023-04-15T10:56:25;1.03;;;0.90;;
6023;SDS011;3040;42.654;23.296;2023-04-15T10:58:54;1.33;;;0.50;;
6023;SDS011;3040;42.654;23.296;2023-04-15T11:01:22;1.23;;;0.57;;
6023;SDS011;3040;42.654;23.296;2023-04-15T11:04:20;0.77;;;0.77;;
6023;SDS011;3040;42.654;23.296;2023-04-15T11:07:36;0.93;;;0.70;;
6023;SDS011;3040;42.654;23.296;2023-04-15T11:13:17;1.47;;;0.80;;
6023;SDS011;3040;42.654;23.296;2023-04-15T11:15:47;1.33;;;0.70;;
6023;SDS011;3040;42.654;23.296;2023-04-15T11:18:16;3.97;;;0.77;;
6023;SDS011;3040;42.654;23.296;2023-04-15T11:20:45;0.70;;;0.70;;
6023;SDS011;3040;42.654;23.296;2023-04-15T11:23:16;1.03;;;0.80;;
6023;SDS011;3040;42.654;23.296;2023-04-15T11:25:43;1.33;;;0.77;;
6023;SDS011;3040;42.654;23.296;2023-04-15T11:28:11;0.77;;;0.77;;
6023;SDS011;3040;42.654;23.296;2023-04-15T11:30:39;0.50;;;0.50;;
6023;SDS011;3040;42.654;23.296;2023-04-15T11:33:08;1.07;;;0.60;;
6023;SDS011;3040;42.654;23.296;2023-04-15T11:35:36;0.87;;;0.70;;
6023;SDS011;3040;42.654;23.296;2023-04-15T11:38:09;2.27;;;0.87;;
6023;SDS011;3040;42.654;23.296;2023-04-15T11:40:38;0.80;;;0.60;;
6023;SDS011;3040;42.654;23.296;2023-04-15T11:43:06;0.97;;;0.97;;
6023;SDS011;3040;42.654;23.296;2023-04-15T11:45:35;1.93;;;0.60;;
6023;SDS011;3040;42.654;23.296;2023-04-15T11:48:06;0.80;;;0.50;;
6023;SDS011;3040;42.654;23.296;2023-04-15T11:50:34;0.77;;;0.50;;
6023;SDS011;3040;42.654;23.296;2023-04-15T11:53:02;1.00;;;0.90;;
6023;SDS011;3040;42.654;23.296;2023-04-15T11:55:30;0.80;;;0.80;;
6023;SDS011;3040;42.654;23.296;2023-04-15T11:58:11;0.90;;;0.70;;
6023;SDS011;3040;42.654;23.296;2023-04-15T12:00:39;0.83;;;0.53;;
6023;SDS011;3040;42.654;23.296;2023-04-15T12:03:13;0.57;;;0.57;;
6023;SDS011;3040;42.654;23.296;2023-04-15T12:08:50;0.60;;;0.53;;
6023;SDS011;3040;42.654;23.296;2023-04-15T12:11:33;1.80;;;0.60;;
6023;SDS011;3040;42.654;23.296;2023-04-15T12:14:07;0.40;;;0.40;;
6023;SDS011;3040;42.654;23.296;2023-04-15T12:16:36;0.57;;;0.57;;
6023;SDS011;3040;42.654;23.296;2023-04-15T12:19:06;0.90;;;0.60;;
6023;SDS011;3040;42.654;23.296;2023-04-15T12:21:35;0.70;;;0.60;;
6023;SDS011;3040;42.654;23.296;2023-04-15T12:24:04;0.77;;;0.50;;
6023;SDS011;3040;42.654;23.296;2023-04-15T12:26:34;1.93;;;0.60;;
6023;SDS011;3040;42.654;23.296;2023-04-15T12:29:03;1.07;;;0.97;;
6023;SDS011;3040;42.654;23.296;2023-04-15T12:31:33;0.73;;;0.63;;
6023;SDS011;3040;42.654;23.296;2023-04-15T12:34:00;0.90;;;0.50;;
6023;SDS011;3040;42.654;23.296;2023-04-15T12:36:28;0.80;;;0.70;;
6023;SDS011;3040;42.654;23.296;2023-04-15T12:39:00;1.83;;;0.50;;
6023;SDS011;3040;42.654;23.296;2023-04-15T12:41:28;1.23;;;0.80;;
6023;SDS011;3040;42.654;23.296;2023-04-15T12:43:55;0.60;;;0.60;;
6023;SDS011;3040;42.654;23.296;2023-04-15T12:46:22;1.27;;;0.90;;
6023;SDS011;3040;42.654;23.296;2023-04-15T12:48:50;0.93;;;0.80;;
6023;SDS011;3040;42.654;23.296;2023-04-15T12:51:18;0.40;;;0.40;;
6023;SDS011;3040;42.654;23.296;2023-04-15T12:53:45;1.73;;;0.70;;
6023;SDS011;3040;42.654;23.296;2023-04-15T12:56:13;1.07;;;0.73;;
6023;SDS011;3040;42.654;23.296;2023-04-15T12:58:40;6.77;;;6.30;;
6023;SDS011;3040;42.654;23.296;2023-04-15T13:01:07;1.77;;;1.67;;
6023;SDS011;3040;42.654;23.296;2023-04-15T13:03:34;0.70;;;0.70;;
6023;SDS011;3040;42.654;23.296;2023-04-15T13:06:02;0.60;;;0.60;;
6023;SDS011;3040;42.654;23.296;2023-04-15T13:08:30;1.67;;;0.40;;
6023;SDS011;3040;42.654;23.296;2023-04-15T13:10:57;1.67;;;0.40;;
6023;SDS011;3040;42.654;23.296;2023-04-15T13:13:23;1.63;;;1.53;;
6023;SDS011;3040;42.654;23.296;2023-04-15T13:15:51;0.87;;;0.60;;
6023;SDS011;3040;42.654;23.296;2023-04-15T13:18:18;0.70;;;0.50;;
6023;SDS011;3040;42.654;23.296;2023-04-15T13:20:45;1.30;;;0.63;;
6023;SDS011;3040;42.654;23.296;2023-04-15T13:23:13;1.67;;;0.50;;
6023;SDS011;3040;42.654;23.296;2023-04-15T13:25:40;0.70;;;0.57;;
6023;SDS011;3040;42.654;23.296;2023-04-15T13:28:07;2.00;;;0.50;;
6023;SDS011;3040;42.654;23.296;2023-04-15T13:30:36;1.80;;;0.97;;
6023;SDS011;3040;42.654;23.296;2023-04-15T13:33:03;1.20;;;1.10;;
6023;SDS011;3040;42.654;23.296;2023-04-15T13:35:30;0.60;;;0.50;;
6023;SDS011;3040;42.654;23.296;2023-04-15T13:37:57;1.27;;;0.60;;
6023;SDS011;3040;42.654;23.296;2023-04-15T13:40:26;1.17;;;0.50;;
6023;SDS011;3040;42.654;23.296;2023-04-15T13:42:52;1.70;;;0.40;;
6023;SDS011;3040;42.654;23.296;2023-04-15T13:45:20;3.43;;;3.23;;
6023;SDS011;3040;42.654;23.296;2023-04-15T13:47:47;5.63;;;5.07;;
6023;SDS011;3040;42.654;23.296;2023-04-15T13:50:13;2.80;;;2.13;;
6023;SDS011;3040;42.654;23.296;2023-04-15T13:52:40;2.00;;;0.80;;
6023;SDS011;3040;42.654;23.296;2023-04-15T13:55:07;0.30;;;0.30;;
6023;SDS011;3040;42.654;23.296;2023-04-15T13:57:36;0.67;;;0.67;;
6023;SDS011;3040;42.654;23.296;2023-04-15T14:00:03;2.60;;;2.40;;
6023;SDS011;3040;42.654;23.296;2023-04-15T14:02:31;2.10;;;1.50;;
6023;SDS011;3040;42.654;23.296;2023-04-15T14:04:58;1.93;;;1.07;;
6023;SDS011;3040;42.654;23.296;2023-04-15T14:07:25;0.70;;;0.60;;
6023;SDS011;3040;42.654;23.296;2023-04-15T14:09:54;1.30;;;1.00;;
6023;SDS011;3040;42.654;23.296;2023-04-15T14:12:21;1.00;;;0.67;;
6023;SDS011;3040;42.654;23.296;2023-04-15T14:14:49;0.53;;;0.43;;
6023;SDS011;3040;42.654;23.296;2023-04-15T14:17:16;2.53;;;0.50;;
6023;SDS011;3040;42.654;23.296;2023-04-15T14:19:43;2.57;;;0.60;;
6023;SDS011;3040;42.654;23.296;2023-04-15T14:22:10;0.83;;;0.60;;
6023;SDS011;3040;42.654;23.296;2023-04-15T14:24:37;0.40;;;0.40;;
6023;SDS011;3040;42.654;23.296;2023-04-15T14:27:04;0.50;;;0.50;;
6023;SDS011;3040;42.654;23.296;2023-04-15T14:29:32;0.50;;;0.50;;
6023;SDS011;3040;42.654;23.296;2023-04-15T14:32:01;2.63;;;0.50;;
6023;SDS011;3040;42.654;23.296;2023-04-15T14:34:27;0.90;;;0.50;;
6023;SDS011;3040;42.654;23.296;2023-04-15T14:36:54;0.80;;;0.80;;
6023;SDS011;3040;42.654;23.296;2023-04-15T14:39:21;0.50;;;0.40;;
6023;SDS011;3040;42.654;23.296;2023-04-15T14:41:48;0.70;;;0.47;;
6023;SDS011;3040;42.654;23.296;2023-04-15T14:44:15;0.50;;;0.50;;
6023;SDS011;3040;42.654;23.296;2023-04-15T14:46:44;1.47;;;0.70;;
6023;SDS011;3040;42.654;23.296;2023-04-15T14:49:12;1.47;;;1.10;;
6023;SDS011;3040;42.654;23.296;2023-04-15T14:51:39;0.80;;;0.50;;
6023;SDS011;3040;42.654;23.296;2023-04-15T14:54:06;0.73;;;0.73;;
6023;SDS011;3040;42.654;23.296;2023-04-15T14:56:33;0.97;;;0.50;;
6023;SDS011;3040;42.654;23.296;2023-04-15T14:59:00;1.83;;;0.67;;
6023;SDS011;3040;42.654;23.296;2023-04-15T15:01:27;2.70;;;2.50;;
6023;SDS011;3040;42.654;23.296;2023-04-15T15:03:54;15.10;;;13.83;;
6023;SDS011;3040;42.654;23.296;2023-04-15T15:06:22;6.77;;;6.23;;
6023;SDS011;3040;42.654;23.296;2023-04-15T15:08:50;23.93;;;20.23;;
6023;SDS011;3040;42.654;23.296;2023-04-15T15:11:16;1.73;;;0.80;;
6023;SDS011;3040;42.654;23.296;2023-04-15T15:13:43;1.13;;;0.90;;